Terminal Aerodrome Forecast
Issued by NWS

Home | Current Version | Previous Version | Graphics & Text | Print | Product List | Glossary On
Versions: 1 2 3 4 5 6 7 8 9 10 11 12 13 14 15 16 17
363
FTUS43 KIWX 291137
TAFSBN
TAF
KSBN 291137Z 2912/3012 22007KT P6SM SCT080
     FM291500 25014G24KT P6SM SCT050
     FM300000 25006KT P6SM FEW050=

USA.gov is the U.S. government's official web portal to all federal, state and local government web resources and services.